sensor_id;sensor_type;location;lat;lon;timestamp;P1;durP1;ratioP1;P2;durP2;ratioP2
3054;SDS011;1537;52.018;8.542;2023-11-19T00:01:39;3.53;;;1.80;;
3054;SDS011;1537;52.018;8.542;2023-11-19T00:05:06;8.83;;;5.97;;
3054;SDS011;1537;52.018;8.542;2023-11-19T00:08:32;5.13;;;2.90;;
3054;SDS011;1537;52.018;8.542;2023-11-19T00:11:56;3.90;;;1.77;;
3054;SDS011;1537;52.018;8.542;2023-11-19T00:15:23;3.30;;;1.63;;
3054;SDS011;1537;52.018;8.542;2023-11-19T00:18:47;4.00;;;2.20;;
3054;SDS011;1537;52.018;8.542;2023-11-19T00:22:12;6.00;;;3.90;;
3054;SDS011;1537;52.018;8.542;2023-11-19T00:25:36;4.70;;;1.87;;
3054;SDS011;1537;52.018;8.542;2023-11-19T00:29:01;4.03;;;2.07;;
3054;SDS011;1537;52.018;8.542;2023-11-19T00:32:26;3.60;;;1.87;;
3054;SDS011;1537;52.018;8.542;2023-11-19T00:35:52;6.83;;;4.37;;
3054;SDS011;1537;52.018;8.542;2023-11-19T00:39:16;11.53;;;8.57;;
3054;SDS011;1537;52.018;8.542;2023-11-19T00:42:42;17.90;;;14.23;;
3054;SDS011;1537;52.018;8.542;2023-11-19T00:46:07;5.10;;;2.77;;
3054;SDS011;1537;52.018;8.542;2023-11-19T00:49:34;3.90;;;2.30;;
3054;SDS011;1537;52.018;8.542;2023-11-19T00:52:59;10.77;;;6.53;;
3054;SDS011;1537;52.018;8.542;2023-11-19T00:56:25;9.43;;;6.37;;
3054;SDS011;1537;52.018;8.542;2023-11-19T00:59:50;6.77;;;3.00;;
3054;SDS011;1537;52.018;8.542;2023-11-19T01:03:14;4.80;;;2.90;;
3054;SDS011;1537;52.018;8.542;2023-11-19T01:06:39;3.20;;;1.50;;
3054;SDS011;1537;52.018;8.542;2023-11-19T01:10:07;4.37;;;1.90;;
3054;SDS011;1537;52.018;8.542;2023-11-19T01:13:32;3.70;;;1.70;;
3054;SDS011;1537;52.018;8.542;2023-11-19T01:16:56;4.07;;;2.07;;
3054;SDS011;1537;52.018;8.542;2023-11-19T01:20:20;3.97;;;2.13;;
3054;SDS011;1537;52.018;8.542;2023-11-19T01:23:45;4.10;;;2.70;;
3054;SDS011;1537;52.018;8.542;2023-11-19T01:27:10;4.50;;;2.90;;
3054;SDS011;1537;52.018;8.542;2023-11-19T01:30:34;4.40;;;2.87;;
3054;SDS011;1537;52.018;8.542;2023-11-19T01:33:58;4.80;;;2.67;;
3054;SDS011;1537;52.018;8.542;2023-11-19T01:37:22;4.50;;;3.23;;
3054;SDS011;1537;52.018;8.542;2023-11-19T01:40:47;6.57;;;3.63;;
3054;SDS011;1537;52.018;8.542;2023-11-19T01:44:11;7.40;;;5.30;;
3054;SDS011;1537;52.018;8.542;2023-11-19T01:47:35;7.10;;;5.27;;
3054;SDS011;1537;52.018;8.542;2023-11-19T01:51:00;7.10;;;4.97;;
3054;SDS011;1537;52.018;8.542;2023-11-19T01:54:25;9.30;;;5.03;;
3054;SDS011;1537;52.018;8.542;2023-11-19T01:57:53;5.80;;;3.87;;
3054;SDS011;1537;52.018;8.542;2023-11-19T02:01:18;7.63;;;5.00;;
3054;SDS011;1537;52.018;8.542;2023-11-19T02:04:42;5.67;;;3.50;;
3054;SDS011;1537;52.018;8.542;2023-11-19T02:08:06;6.00;;;4.00;;
3054;SDS011;1537;52.018;8.542;2023-11-19T02:11:31;5.90;;;3.53;;
3054;SDS011;1537;52.018;8.542;2023-11-19T02:14:57;4.60;;;3.03;;
3054;SDS011;1537;52.018;8.542;2023-11-19T02:18:22;13.43;;;3.50;;
3054;SDS011;1537;52.018;8.542;2023-11-19T02:21:50;4.50;;;3.00;;
3054;SDS011;1537;52.018;8.542;2023-11-19T02:25:15;4.83;;;3.40;;
3054;SDS011;1537;52.018;8.542;2023-11-19T02:28:48;6.03;;;4.20;;
3054;SDS011;1537;52.018;8.542;2023-11-19T02:32:14;6.33;;;4.60;;
3054;SDS011;1537;52.018;8.542;2023-11-19T02:35:39;5.43;;;4.23;;
3054;SDS011;1537;52.018;8.542;2023-11-19T02:39:03;9.40;;;5.53;;
3054;SDS011;1537;52.018;8.542;2023-11-19T02:42:33;7.33;;;5.03;;
3054;SDS011;1537;52.018;8.542;2023-11-19T02:46:00;9.97;;;6.63;;
3054;SDS011;1537;52.018;8.542;2023-11-19T02:49:37;8.70;;;6.07;;
3054;SDS011;1537;52.018;8.542;2023-11-19T02:53:01;8.17;;;6.30;;
3054;SDS011;1537;52.018;8.542;2023-11-19T02:56:25;9.53;;;7.10;;
3054;SDS011;1537;52.018;8.542;2023-11-19T02:59:51;8.60;;;7.17;;
3054;SDS011;1537;52.018;8.542;2023-11-19T03:03:19;12.40;;;8.07;;
3054;SDS011;1537;52.018;8.542;2023-11-19T03:06:51;14.00;;;10.20;;
3054;SDS011;1537;52.018;8.542;2023-11-19T03:10:15;12.93;;;9.53;;
3054;SDS011;1537;52.018;8.542;2023-11-19T03:13:39;11.20;;;8.83;;
3054;SDS011;1537;52.018;8.542;2023-11-19T03:17:03;15.73;;;12.03;;
3054;SDS011;1537;52.018;8.542;2023-11-19T03:20:31;12.97;;;11.03;;
3054;SDS011;1537;52.018;8.542;2023-11-19T03:23:55;12.97;;;10.90;;
3054;SDS011;1537;52.018;8.542;2023-11-19T03:27:22;16.00;;;11.37;;
3054;SDS011;1537;52.018;8.542;2023-11-19T03:30:46;15.10;;;11.67;;
3054;SDS011;1537;52.018;8.542;2023-11-19T03:34:11;15.13;;;11.70;;
3054;SDS011;1537;52.018;8.542;2023-11-19T03:37:37;15.97;;;12.10;;
3054;SDS011;1537;52.018;8.542;2023-11-19T03:41:09;16.73;;;12.30;;
3054;SDS011;1537;52.018;8.542;2023-11-19T03:44:34;15.03;;;12.10;;
3054;SDS011;1537;52.018;8.542;2023-11-19T03:47:58;14.73;;;12.83;;
3054;SDS011;1537;52.018;8.542;2023-11-19T03:51:22;16.70;;;12.80;;
3054;SDS011;1537;52.018;8.542;2023-11-19T03:54:49;17.17;;;14.27;;
3054;SDS011;1537;52.018;8.542;2023-11-19T03:58:12;15.13;;;12.87;;
3054;SDS011;1537;52.018;8.542;2023-11-19T04:01:36;17.80;;;12.07;;
3054;SDS011;1537;52.018;8.542;2023-11-19T04:05:00;18.97;;;12.57;;
3054;SDS011;1537;52.018;8.542;2023-11-19T04:08:25;18.67;;;12.17;;
3054;SDS011;1537;52.018;8.542;2023-11-19T04:11:51;14.30;;;11.73;;
3054;SDS011;1537;52.018;8.542;2023-11-19T04:15:16;13.10;;;10.40;;
3054;SDS011;1537;52.018;8.542;2023-11-19T04:18:40;20.53;;;11.77;;
3054;SDS011;1537;52.018;8.542;2023-11-19T04:22:06;16.80;;;11.27;;
3054;SDS011;1537;52.018;8.542;2023-11-19T04:25:31;13.07;;;10.00;;
3054;SDS011;1537;52.018;8.542;2023-11-19T04:28:57;14.10;;;9.60;;
3054;SDS011;1537;52.018;8.542;2023-11-19T04:32:20;14.83;;;9.20;;
3054;SDS011;1537;52.018;8.542;2023-11-19T04:35:44;15.03;;;9.57;;
3054;SDS011;1537;52.018;8.542;2023-11-19T04:39:08;14.53;;;7.30;;
3054;SDS011;1537;52.018;8.542;2023-11-19T04:42:35;12.97;;;8.20;;
3054;SDS011;1537;52.018;8.542;2023-11-19T04:46:01;14.27;;;7.90;;
3054;SDS011;1537;52.018;8.542;2023-11-19T04:49:27;13.40;;;7.50;;
3054;SDS011;1537;52.018;8.542;2023-11-19T04:52:50;16.27;;;8.50;;
3054;SDS011;1537;52.018;8.542;2023-11-19T04:56:14;11.63;;;6.90;;
3054;SDS011;1537;52.018;8.542;2023-11-19T04:59:41;19.90;;;6.83;;
3054;SDS011;1537;52.018;8.542;2023-11-19T05:03:07;12.27;;;6.50;;
3054;SDS011;1537;52.018;8.542;2023-11-19T05:06:32;15.90;;;7.20;;
3054;SDS011;1537;52.018;8.542;2023-11-19T05:09:56;19.83;;;7.50;;
3054;SDS011;1537;52.018;8.542;2023-11-19T05:13:20;16.27;;;5.70;;
3054;SDS011;1537;52.018;8.542;2023-11-19T05:16:44;11.57;;;6.70;;
3054;SDS011;1537;52.018;8.542;2023-11-19T05:20:10;13.47;;;6.40;;
3054;SDS011;1537;52.018;8.542;2023-11-19T05:23:38;25.80;;;7.00;;
3054;SDS011;1537;52.018;8.542;2023-11-19T05:27:04;20.30;;;8.03;;
3054;SDS011;1537;52.018;8.542;2023-11-19T05:30:30;14.30;;;6.50;;
3054;SDS011;1537;52.018;8.542;2023-11-19T05:33:55;21.43;;;6.90;;
3054;SDS011;1537;52.018;8.542;2023-11-19T05:37:21;21.03;;;6.03;;
3054;SDS011;1537;52.018;8.542;2023-11-19T05:40:44;16.40;;;5.33;;
3054;SDS011;1537;52.018;8.542;2023-11-19T05:44:10;19.00;;;7.50;;
3054;SDS011;1537;52.018;8.542;2023-11-19T05:47:34;18.13;;;6.07;;
3054;SDS011;1537;52.018;8.542;2023-11-19T05:50:58;18.50;;;5.90;;
3054;SDS011;1537;52.018;8.542;2023-11-19T05:54:26;20.43;;;6.90;;
3054;SDS011;1537;52.018;8.542;2023-11-19T05:57:52;18.37;;;6.40;;
3054;SDS011;1537;52.018;8.542;2023-11-19T06:01:20;20.67;;;6.37;;
3054;SDS011;1537;52.018;8.542;2023-11-19T06:04:44;17.30;;;5.60;;
3054;SDS011;1537;52.018;8.542;2023-11-19T06:08:10;21.83;;;6.87;;
3054;SDS011;1537;52.018;8.542;2023-11-19T06:11:37;14.27;;;5.90;;
3054;SDS011;1537;52.018;8.542;2023-11-19T06:15:01;14.17;;;5.30;;
3054;SDS011;1537;52.018;8.542;2023-11-19T06:18:26;18.43;;;5.80;;
3054;SDS011;1537;52.018;8.542;2023-11-19T06:21:50;21.97;;;5.63;;
3054;SDS011;1537;52.018;8.542;2023-11-19T06:25:14;22.40;;;6.30;;
3054;SDS011;1537;52.018;8.542;2023-11-19T06:28:43;15.23;;;6.30;;
3054;SDS011;1537;52.018;8.542;2023-11-19T06:32:07;23.00;;;6.43;;
3054;SDS011;1537;52.018;8.542;2023-11-19T06:35:34;18.33;;;6.70;;
3054;SDS011;1537;52.018;8.542;2023-11-19T06:39:00;22.07;;;6.73;;
3054;SDS011;1537;52.018;8.542;2023-11-19T06:42:24;20.80;;;6.20;;
3054;SDS011;1537;52.018;8.542;2023-11-19T06:45:50;24.50;;;6.07;;
3054;SDS011;1537;52.018;8.542;2023-11-19T06:49:13;20.57;;;6.60;;
3054;SDS011;1537;52.018;8.542;2023-11-19T06:52:38;17.00;;;5.70;;
3054;SDS011;1537;52.018;8.542;2023-11-19T06:56:02;15.07;;;5.90;;
3054;SDS011;1537;52.018;8.542;2023-11-19T06:59:28;22.00;;;8.97;;
3054;SDS011;1537;52.018;8.542;2023-11-19T07:02:55;17.60;;;6.57;;
3054;SDS011;1537;52.018;8.542;2023-11-19T07:06:19;21.67;;;5.93;;
3054;SDS011;1537;52.018;8.542;2023-11-19T07:09:56;18.43;;;6.03;;
3054;SDS011;1537;52.018;8.542;2023-11-19T07:13:20;14.83;;;6.60;;
3054;SDS011;1537;52.018;8.542;2023-11-19T07:16:45;18.77;;;8.17;;
3054;SDS011;1537;52.018;8.542;2023-11-19T07:20:12;23.13;;;7.30;;
3054;SDS011;1537;52.018;8.542;2023-11-19T07:23:44;20.13;;;6.03;;
3054;SDS011;1537;52.018;8.542;2023-11-19T07:27:09;15.93;;;7.50;;
3054;SDS011;1537;52.018;8.542;2023-11-19T07:30:33;16.70;;;6.57;;
3054;SDS011;1537;52.018;8.542;2023-11-19T07:33:57;24.33;;;5.97;;
3054;SDS011;1537;52.018;8.542;2023-11-19T07:37:23;31.80;;;8.10;;
3054;SDS011;1537;52.018;8.542;2023-11-19T07:40:47;38.13;;;10.57;;
3054;SDS011;1537;52.018;8.542;2023-11-19T07:44:14;22.07;;;7.50;;
3054;SDS011;1537;52.018;8.542;2023-11-19T07:47:39;16.37;;;5.53;;
3054;SDS011;1537;52.018;8.542;2023-11-19T07:51:04;29.80;;;8.53;;
3054;SDS011;1537;52.018;8.542;2023-11-19T07:54:31;27.43;;;7.27;;
3054;SDS011;1537;52.018;8.542;2023-11-19T07:57:55;18.03;;;6.80;;
3054;SDS011;1537;52.018;8.542;2023-11-19T08:01:19;26.77;;;6.73;;
3054;SDS011;1537;52.018;8.542;2023-11-19T08:04:45;20.97;;;7.43;;
3054;SDS011;1537;52.018;8.542;2023-11-19T08:08:13;17.90;;;7.13;;
3054;SDS011;1537;52.018;8.542;2023-11-19T08:11:40;24.23;;;9.10;;
3054;SDS011;1537;52.018;8.542;2023-11-19T08:15:05;23.13;;;7.77;;
3054;SDS011;1537;52.018;8.542;2023-11-19T08:18:31;21.90;;;6.80;;
3054;SDS011;1537;52.018;8.542;2023-11-19T08:21:55;24.47;;;7.40;;
3054;SDS011;1537;52.018;8.542;2023-11-19T08:25:20;23.70;;;8.60;;
3054;SDS011;1537;52.018;8.542;2023-11-19T08:28:47;18.17;;;8.03;;
3054;SDS011;1537;52.018;8.542;2023-11-19T08:32:10;22.67;;;7.23;;
3054;SDS011;1537;52.018;8.542;2023-11-19T08:35:35;19.77;;;7.43;;
3054;SDS011;1537;52.018;8.542;2023-11-19T08:38:58;20.97;;;7.53;;
3054;SDS011;1537;52.018;8.542;2023-11-19T08:42:23;26.37;;;8.03;;
3054;SDS011;1537;52.018;8.542;2023-11-19T08:45:50;25.30;;;8.93;;
3054;SDS011;1537;52.018;8.542;2023-11-19T08:49:15;25.37;;;8.37;;
3054;SDS011;1537;52.018;8.542;2023-11-19T08:52:39;21.13;;;6.90;;
3054;SDS011;1537;52.018;8.542;2023-11-19T08:56:03;16.80;;;7.30;;
3054;SDS011;1537;52.018;8.542;2023-11-19T08:59:28;25.17;;;9.30;;
3054;SDS011;1537;52.018;8.542;2023-11-19T09:02:53;24.10;;;7.03;;
3054;SDS011;1537;52.018;8.542;2023-11-19T09:06:18;20.90;;;7.00;;
3054;SDS011;1537;52.018;8.542;2023-11-19T09:09:44;29.47;;;8.33;;
3054;SDS011;1537;52.018;8.542;2023-11-19T09:13:08;23.33;;;7.60;;
3054;SDS011;1537;52.018;8.542;2023-11-19T09:16:40;18.33;;;7.80;;
3054;SDS011;1537;52.018;8.542;2023-11-19T09:20:13;27.40;;;8.30;;
3054;SDS011;1537;52.018;8.542;2023-11-19T09:23:38;17.97;;;7.57;;
3054;SDS011;1537;52.018;8.542;2023-11-19T09:27:03;25.13;;;8.20;;
3054;SDS011;1537;52.018;8.542;2023-11-19T09:30:28;19.43;;;9.27;;
3054;SDS011;1537;52.018;8.542;2023-11-19T09:33:52;19.97;;;7.97;;
3054;SDS011;1537;52.018;8.542;2023-11-19T09:37:17;22.17;;;9.60;;
3054;SDS011;1537;52.018;8.542;2023-11-19T09:40:43;26.07;;;8.43;;
3054;SDS011;1537;52.018;8.542;2023-11-19T09:44:08;20.13;;;7.57;;
3054;SDS011;1537;52.018;8.542;2023-11-19T09:47:34;16.43;;;6.60;;
3054;SDS011;1537;52.018;8.542;2023-11-19T09:50:57;23.43;;;7.77;;
3054;SDS011;1537;52.018;8.542;2023-11-19T09:54:23;26.47;;;8.33;;
3054;SDS011;1537;52.018;8.542;2023-11-19T09:57:48;21.73;;;8.33;;
3054;SDS011;1537;52.018;8.542;2023-11-19T10:01:15;35.33;;;9.47;;
3054;SDS011;1537;52.018;8.542;2023-11-19T10:04:42;25.20;;;8.30;;
3054;SDS011;1537;52.018;8.542;2023-11-19T10:08:09;18.03;;;7.17;;
3054;SDS011;1537;52.018;8.542;2023-11-19T10:11:38;23.00;;;7.60;;
3054;SDS011;1537;52.018;8.542;2023-11-19T10:15:06;28.43;;;7.87;;
3054;SDS011;1537;52.018;8.542;2023-11-19T10:18:37;31.07;;;9.00;;
3054;SDS011;1537;52.018;8.542;2023-11-19T10:22:04;31.33;;;8.40;;
3054;SDS011;1537;52.018;8.542;2023-11-19T10:25:28;27.10;;;7.90;;
3054;SDS011;1537;52.018;8.542;2023-11-19T10:28:54;37.13;;;9.10;;
3054;SDS011;1537;52.018;8.542;2023-11-19T10:32:19;19.70;;;8.87;;
3054;SDS011;1537;52.018;8.542;2023-11-19T10:35:52;20.67;;;7.93;;
3054;SDS011;1537;52.018;8.542;2023-11-19T10:39:21;27.33;;;8.73;;
3054;SDS011;1537;52.018;8.542;2023-11-19T10:42:46;17.80;;;7.10;;
3054;SDS011;1537;52.018;8.542;2023-11-19T10:46:13;33.63;;;9.13;;
3054;SDS011;1537;52.018;8.542;2023-11-19T10:49:43;21.23;;;7.53;;
3054;SDS011;1537;52.018;8.542;2023-11-19T10:53:08;24.20;;;8.27;;
3054;SDS011;1537;52.018;8.542;2023-11-19T10:56:36;18.17;;;7.33;;
3054;SDS011;1537;52.018;8.542;2023-11-19T11:00:01;16.53;;;6.90;;
3054;SDS011;1537;52.018;8.542;2023-11-19T11:03:29;26.87;;;9.40;;
3054;SDS011;1537;52.018;8.542;2023-11-19T11:07:03;22.50;;;8.37;;
3054;SDS011;1537;52.018;8.542;2023-11-19T11:10:27;30.33;;;8.50;;
3054;SDS011;1537;52.018;8.542;2023-11-19T11:13:58;23.80;;;9.30;;
3054;SDS011;1537;52.018;8.542;2023-11-19T11:17:24;27.43;;;7.83;;
3054;SDS011;1537;52.018;8.542;2023-11-19T11:20:54;21.40;;;8.83;;
3054;SDS011;1537;52.018;8.542;2023-11-19T11:24:30;27.40;;;9.50;;
3054;SDS011;1537;52.018;8.542;2023-11-19T11:28:26;26.87;;;8.40;;
3054;SDS011;1537;52.018;8.542;2023-11-19T11:31:58;27.33;;;6.97;;
3054;SDS011;1537;52.018;8.542;2023-11-19T11:35:30;19.63;;;6.20;;
3054;SDS011;1537;52.018;8.542;2023-11-19T11:39:04;27.53;;;7.40;;
3054;SDS011;1537;52.018;8.542;2023-11-19T11:42:36;15.00;;;6.37;;
3054;SDS011;1537;52.018;8.542;2023-11-19T11:46:02;21.23;;;6.20;;
3054;SDS011;1537;52.018;8.542;2023-11-19T11:49:27;26.83;;;8.07;;
3054;SDS011;1537;52.018;8.542;2023-11-19T11:56:41;16.17;;;5.70;;
3054;SDS011;1537;52.018;8.542;2023-11-19T12:00:05;18.73;;;6.30;;
3054;SDS011;1537;52.018;8.542;2023-11-19T12:03:46;17.60;;;6.80;;
3054;SDS011;1537;52.018;8.542;2023-11-19T12:07:11;25.70;;;6.40;;
3054;SDS011;1537;52.018;8.542;2023-11-19T12:10:37;26.53;;;8.27;;
3054;SDS011;1537;52.018;8.542;2023-11-19T12:14:11;22.50;;;8.23;;
3054;SDS011;1537;52.018;8.542;2023-11-19T12:17:38;32.40;;;8.20;;
3054;SDS011;1537;52.018;8.542;2023-11-19T12:21:12;37.00;;;8.47;;
3054;SDS011;1537;52.018;8.542;2023-11-19T12:24:56;21.13;;;6.30;;
3054;SDS011;1537;52.018;8.542;2023-11-19T12:28:22;17.73;;;6.37;;
3054;SDS011;1537;52.018;8.542;2023-11-19T12:31:54;28.17;;;7.20;;
3054;SDS011;1537;52.018;8.542;2023-11-19T12:35:38;25.50;;;8.40;;
3054;SDS011;1537;52.018;8.542;2023-11-19T12:39:02;34.13;;;7.50;;
3054;SDS011;1537;52.018;8.542;2023-11-19T12:42:34;22.10;;;7.50;;
3054;SDS011;1537;52.018;8.542;2023-11-19T12:45:59;29.30;;;11.07;;
3054;SDS011;1537;52.018;8.542;2023-11-19T12:49:30;26.77;;;9.93;;
3054;SDS011;1537;52.018;8.542;2023-11-19T12:52:57;24.70;;;12.97;;
3054;SDS011;1537;52.018;8.542;2023-11-19T12:56:21;25.43;;;8.63;;
3054;SDS011;1537;52.018;8.542;2023-11-19T12:59:54;29.30;;;9.13;;
3054;SDS011;1537;52.018;8.542;2023-11-19T13:03:28;24.70;;;7.97;;
3054;SDS011;1537;52.018;8.542;2023-11-19T13:06:55;20.80;;;7.00;;
3054;SDS011;1537;52.018;8.542;2023-11-19T13:10:21;23.50;;;10.30;;
3054;SDS011;1537;52.018;8.542;2023-11-19T13:13:55;33.27;;;12.07;;
3054;SDS011;1537;52.018;8.542;2023-11-19T13:17:21;42.97;;;21.70;;
3054;SDS011;1537;52.018;8.542;2023-11-19T13:20:45;23.50;;;7.73;;
3054;SDS011;1537;52.018;8.542;2023-11-19T13:24:10;21.10;;;8.27;;
3054;SDS011;1537;52.018;8.542;2023-11-19T13:27:34;28.50;;;10.10;;
3054;SDS011;1537;52.018;8.542;2023-11-19T13:30:58;21.47;;;7.40;;
3054;SDS011;1537;52.018;8.542;2023-11-19T13:34:22;25.63;;;9.40;;
3054;SDS011;1537;52.018;8.542;2023-11-19T13:37:46;24.10;;;8.67;;
3054;SDS011;1537;52.018;8.542;2023-11-19T13:41:11;21.63;;;8.90;;
3054;SDS011;1537;52.018;8.542;2023-11-19T13:44:35;22.60;;;8.73;;
3054;SDS011;1537;52.018;8.542;2023-11-19T13:47:59;21.83;;;7.90;;
3054;SDS011;1537;52.018;8.542;2023-11-19T13:51:23;24.20;;;7.97;;
3054;SDS011;1537;52.018;8.542;2023-11-19T13:54:47;20.10;;;9.43;;
3054;SDS011;1537;52.018;8.542;2023-11-19T13:58:14;19.83;;;7.63;;
3054;SDS011;1537;52.018;8.542;2023-11-19T14:01:38;22.40;;;7.43;;
3054;SDS011;1537;52.018;8.542;2023-11-19T14:05:04;27.57;;;8.33;;
3054;SDS011;1537;52.018;8.542;2023-11-19T14:08:28;22.47;;;9.50;;
3054;SDS011;1537;52.018;8.542;2023-11-19T14:11:51;19.90;;;10.57;;
3054;SDS011;1537;52.018;8.542;2023-11-19T14:15:16;23.23;;;8.20;;
3054;SDS011;1537;52.018;8.542;2023-11-19T14:18:40;21.23;;;9.87;;
3054;SDS011;1537;52.018;8.542;2023-11-19T14:22:04;23.37;;;8.60;;
3054;SDS011;1537;52.018;8.542;2023-11-19T14:25:28;29.03;;;9.63;;
3054;SDS011;1537;52.018;8.542;2023-11-19T14:28:51;21.67;;;7.67;;
3054;SDS011;1537;52.018;8.542;2023-11-19T14:32:18;18.80;;;6.83;;
3054;SDS011;1537;52.018;8.542;2023-11-19T14:35:42;32.03;;;7.93;;
3054;SDS011;1537;52.018;8.542;2023-11-19T14:39:06;23.77;;;8.87;;
3054;SDS011;1537;52.018;8.542;2023-11-19T14:42:29;18.30;;;6.60;;
3054;SDS011;1537;52.018;8.542;2023-11-19T14:45:53;14.17;;;6.80;;
3054;SDS011;1537;52.018;8.542;2023-11-19T14:49:20;21.03;;;8.17;;
3054;SDS011;1537;52.018;8.542;2023-11-19T14:52:45;18.23;;;5.87;;
3054;SDS011;1537;52.018;8.542;2023-11-19T14:56:10;26.13;;;6.80;;
3054;SDS011;1537;52.018;8.542;2023-11-19T14:59:34;19.00;;;6.70;;
3054;SDS011;1537;52.018;8.542;2023-11-19T15:02:58;16.47;;;6.20;;
3054;SDS011;1537;52.018;8.542;2023-11-19T15:06:27;14.70;;;5.50;;
3054;SDS011;1537;52.018;8.542;2023-11-19T15:09:52;12.97;;;4.83;;
3054;SDS011;1537;52.018;8.542;2023-11-19T15:13:19;20.00;;;5.60;;
3054;SDS011;1537;52.018;8.542;2023-11-19T15:16:46;15.10;;;5.60;;
3054;SDS011;1537;52.018;8.542;2023-11-19T15:20:13;13.93;;;5.33;;
3054;SDS011;1537;52.018;8.542;2023-11-19T15:23:41;15.53;;;4.90;;
3054;SDS011;1537;52.018;8.542;2023-11-19T15:27:05;14.70;;;6.37;;
3054;SDS011;1537;52.018;8.542;2023-11-19T15:30:32;16.90;;;6.73;;
3054;SDS011;1537;52.018;8.542;2023-11-19T15:33:55;17.60;;;5.93;;
3054;SDS011;1537;52.018;8.542;2023-11-19T15:37:19;15.97;;;6.10;;
3054;SDS011;1537;52.018;8.542;2023-11-19T15:40:47;18.67;;;5.43;;
3054;SDS011;1537;52.018;8.542;2023-11-19T15:44:12;27.40;;;6.03;;
3054;SDS011;1537;52.018;8.542;2023-11-19T15:47:38;14.40;;;5.53;;
3054;SDS011;1537;52.018;8.542;2023-11-19T15:51:02;14.03;;;5.37;;
3054;SDS011;1537;52.018;8.542;2023-11-19T15:54:27;18.30;;;6.80;;
3054;SDS011;1537;52.018;8.542;2023-11-19T15:57:54;20.13;;;6.37;;
3054;SDS011;1537;52.018;8.542;2023-11-19T16:01:18;19.00;;;5.27;;
3054;SDS011;1537;52.018;8.542;2023-11-19T16:04:41;17.17;;;6.63;;
3054;SDS011;1537;52.018;8.542;2023-11-19T16:08:09;15.97;;;6.50;;
3054;SDS011;1537;52.018;8.542;2023-11-19T16:11:33;25.03;;;6.30;;
3054;SDS011;1537;52.018;8.542;2023-11-19T16:15:14;31.63;;;14.27;;
3054;SDS011;1537;52.018;8.542;2023-11-19T16:18:58;22.30;;;7.30;;
3054;SDS011;1537;52.018;8.542;2023-11-19T16:22:22;16.60;;;6.40;;
3054;SDS011;1537;52.018;8.542;2023-11-19T16:25:49;19.77;;;5.93;;
3054;SDS011;1537;52.018;8.542;2023-11-19T16:29:13;15.00;;;4.80;;
3054;SDS011;1537;52.018;8.542;2023-11-19T16:32:48;24.07;;;6.00;;
3054;SDS011;1537;52.018;8.542;2023-11-19T16:36:21;18.97;;;6.00;;
3054;SDS011;1537;52.018;8.542;2023-11-19T16:39:45;16.47;;;6.50;;
3054;SDS011;1537;52.018;8.542;2023-11-19T16:43:08;13.70;;;5.27;;
3054;SDS011;1537;52.018;8.542;2023-11-19T16:46:33;21.90;;;5.73;;
3054;SDS011;1537;52.018;8.542;2023-11-19T16:49:59;16.10;;;5.03;;
3054;SDS011;1537;52.018;8.542;2023-11-19T16:53:26;20.60;;;8.97;;
3054;SDS011;1537;52.018;8.542;2023-11-19T16:56:50;25.87;;;7.20;;
3054;SDS011;1537;52.018;8.542;2023-11-19T17:00:15;19.93;;;6.33;;
3054;SDS011;1537;52.018;8.542;2023-11-19T17:03:40;15.50;;;5.27;;
3054;SDS011;1537;52.018;8.542;2023-11-19T17:07:08;15.67;;;5.37;;
3054;SDS011;1537;52.018;8.542;2023-11-19T17:10:32;15.73;;;5.30;;
3054;SDS011;1537;52.018;8.542;2023-11-19T17:13:58;16.77;;;5.63;;
3054;SDS011;1537;52.018;8.542;2023-11-19T17:17:31;17.63;;;5.40;;
3054;SDS011;1537;52.018;8.542;2023-11-19T17:21:03;23.53;;;7.27;;
3054;SDS011;1537;52.018;8.542;2023-11-19T17:24:31;20.53;;;5.73;;
3054;SDS011;1537;52.018;8.542;2023-11-19T17:27:55;15.13;;;6.37;;
3054;SDS011;1537;52.018;8.542;2023-11-19T17:31:19;13.87;;;5.57;;
3054;SDS011;1537;52.018;8.542;2023-11-19T17:34:45;35.30;;;17.00;;
3054;SDS011;1537;52.018;8.542;2023-11-19T17:38:09;33.87;;;16.07;;
3054;SDS011;1537;52.018;8.542;2023-11-19T17:41:40;25.87;;;8.57;;
3054;SDS011;1537;52.018;8.542;2023-11-19T17:45:04;18.10;;;6.60;;
3054;SDS011;1537;52.018;8.542;2023-11-19T17:48:34;17.63;;;6.30;;
3054;SDS011;1537;52.018;8.542;2023-11-19T17:52:01;15.47;;;5.40;;
3054;SDS011;1537;52.018;8.542;2023-11-19T17:55:29;17.23;;;6.50;;
3054;SDS011;1537;52.018;8.542;2023-11-19T17:58:59;11.20;;;5.50;;
3054;SDS011;1537;52.018;8.542;2023-11-19T18:02:26;17.23;;;5.60;;
3054;SDS011;1537;52.018;8.542;2023-11-19T18:05:53;17.80;;;6.83;;
3054;SDS011;1537;52.018;8.542;2023-11-19T18:09:18;16.57;;;6.53;;
3054;SDS011;1537;52.018;8.542;2023-11-19T18:12:53;19.80;;;5.60;;
3054;SDS011;1537;52.018;8.542;2023-11-19T18:16:20;24.03;;;15.70;;
3054;SDS011;1537;52.018;8.542;2023-11-19T18:19:47;25.53;;;12.97;;
3054;SDS011;1537;52.018;8.542;2023-11-19T18:23:10;38.93;;;19.20;;
3054;SDS011;1537;52.018;8.542;2023-11-19T18:26:36;20.77;;;7.70;;
3054;SDS011;1537;52.018;8.542;2023-11-19T18:30:04;16.83;;;5.17;;
3054;SDS011;1537;52.018;8.542;2023-11-19T18:33:34;15.77;;;6.03;;
3054;SDS011;1537;52.018;8.542;2023-11-19T18:37:04;32.23;;;19.33;;
3054;SDS011;1537;52.018;8.542;2023-11-19T18:40:32;19.90;;;6.67;;
3054;SDS011;1537;52.018;8.542;2023-11-19T18:43:56;21.07;;;5.87;;
3054;SDS011;1537;52.018;8.542;2023-11-19T18:47:24;28.57;;;12.80;;
3054;SDS011;1537;52.018;8.542;2023-11-19T18:51:00;18.20;;;8.83;;
3054;SDS011;1537;52.018;8.542;2023-11-19T18:54:27;18.30;;;7.80;;
3054;SDS011;1537;52.018;8.542;2023-11-19T18:57:53;12.10;;;5.17;;
3054;SDS011;1537;52.018;8.542;2023-11-19T19:01:19;12.30;;;6.53;;
3054;SDS011;1537;52.018;8.542;2023-11-19T19:04:45;18.27;;;5.80;;
3054;SDS011;1537;52.018;8.542;2023-11-19T19:08:20;15.63;;;7.50;;
3054;SDS011;1537;52.018;8.542;2023-11-19T19:11:44;16.53;;;6.00;;
3054;SDS011;1537;52.018;8.542;2023-11-19T19:15:10;14.50;;;6.27;;
3054;SDS011;1537;52.018;8.542;2023-11-19T19:18:37;12.80;;;6.27;;
3054;SDS011;1537;52.018;8.542;2023-11-19T19:22:00;18.90;;;7.20;;
3054;SDS011;1537;52.018;8.542;2023-11-19T19:25:26;14.10;;;6.73;;
3054;SDS011;1537;52.018;8.542;2023-11-19T19:28:50;20.30;;;6.90;;
3054;SDS011;1537;52.018;8.542;2023-11-19T19:32:17;13.97;;;6.37;;
3054;SDS011;1537;52.018;8.542;2023-11-19T19:35:41;18.80;;;6.60;;
3054;SDS011;1537;52.018;8.542;2023-11-19T19:39:05;16.60;;;6.47;;
3054;SDS011;1537;52.018;8.542;2023-11-19T19:42:39;16.27;;;7.53;;
3054;SDS011;1537;52.018;8.542;2023-11-19T19:46:05;13.20;;;6.27;;
3054;SDS011;1537;52.018;8.542;2023-11-19T19:49:31;12.50;;;7.00;;
3054;SDS011;1537;52.018;8.542;2023-11-19T19:52:54;10.07;;;5.10;;
3054;SDS011;1537;52.018;8.542;2023-11-19T19:56:18;11.53;;;6.80;;
3054;SDS011;1537;52.018;8.542;2023-11-19T19:59:44;9.97;;;5.83;;
3054;SDS011;1537;52.018;8.542;2023-11-19T20:03:22;12.80;;;6.60;;
3054;SDS011;1537;52.018;8.542;2023-11-19T20:06:49;10.73;;;6.20;;
3054;SDS011;1537;52.018;8.542;2023-11-19T20:10:14;13.87;;;6.67;;
3054;SDS011;1537;52.018;8.542;2023-11-19T20:13:38;13.00;;;6.60;;
3054;SDS011;1537;52.018;8.542;2023-11-19T20:17:04;18.60;;;7.27;;
3054;SDS011;1537;52.018;8.542;2023-11-19T20:20:32;11.63;;;5.27;;
3054;SDS011;1537;52.018;8.542;2023-11-19T20:24:00;9.10;;;4.50;;
3054;SDS011;1537;52.018;8.542;2023-11-19T20:27:28;10.43;;;5.50;;
3054;SDS011;1537;52.018;8.542;2023-11-19T20:31:01;13.83;;;5.00;;
3054;SDS011;1537;52.018;8.542;2023-11-19T20:34:31;12.40;;;6.40;;
3054;SDS011;1537;52.018;8.542;2023-11-19T20:38:03;17.97;;;6.57;;
3054;SDS011;1537;52.018;8.542;2023-11-19T20:41:31;11.97;;;5.63;;
3054;SDS011;1537;52.018;8.542;2023-11-19T20:44:57;13.93;;;5.53;;
3054;SDS011;1537;52.018;8.542;2023-11-19T20:48:25;11.83;;;6.00;;
3054;SDS011;1537;52.018;8.542;2023-11-19T20:51:53;8.93;;;4.30;;
3054;SDS011;1537;52.018;8.542;2023-11-19T20:55:17;10.10;;;4.23;;
3054;SDS011;1537;52.018;8.542;2023-11-19T20:58:44;12.80;;;5.00;;
3054;SDS011;1537;52.018;8.542;2023-11-19T21:02:10;12.53;;;4.30;;
3054;SDS011;1537;52.018;8.542;2023-11-19T21:05:36;11.60;;;4.00;;
3054;SDS011;1537;52.018;8.542;2023-11-19T21:09:06;9.43;;;4.43;;